Time;durP1;ratioP1;P1;durP2;ratioP2;P2;SDS_P1;SDS_P2;PMS_P1;PMS_P2;Temp;Humidity;BMP_temperature;BMP_pressure;BME280_temperature;BME280_humidity;BME280_pressure;Samples;Min_cycle;Max_cycle;Signal;HPM_P1;HPM_P2
2023/03/15 00:02:03;;;;;;;7.35;1.65;;;;;;;-144.48;100.00;62369.91;5031185;28;20056;-71
2023/03/15 00:04:31;;;;;;;8.50;1.88;;;;;;;-144.48;100.00;62369.91;5030201;28;20055;-71
2023/03/15 00:06:57;;;;;;;7.45;1.48;;;;;;;-144.48;100.00;62369.91;5034417;28;20021;-70
2023/03/15 00:09:23;;;;;;;2.75;1.33;;;;;;;-144.48;100.00;62369.91;5041318;28;20021;-71
2023/03/15 00:11:49;;;;;;;7.25;1.10;;;;;;;-144.48;100.00;62369.91;5030551;28;20040;-71
2023/03/15 00:14:15;;;;;;;8.45;1.40;;;;;;;-144.48;100.00;62369.91;5029640;28;20033;-71
2023/03/15 00:16:42;;;;;;;4.57;1.25;;;;;;;-144.48;100.00;62369.91;5030170;28;20427;-72
2023/03/15 00:19:08;;;;;;;7.75;1.60;;;;;;;-144.48;100.00;62369.91;5030014;28;20032;-71
2023/03/15 00:21:34;;;;;;;10.35;1.42;;;;;;;-144.48;100.00;62369.91;5030545;28;20049;-71
2023/03/15 00:23:59;;;;;;;21.40;2.05;;;;;;;-144.48;100.00;62369.91;5030697;28;20136;-72
2023/03/15 00:26:24;;;;;;;8.63;1.63;;;;;;;-144.48;100.00;62369.91;5030086;28;20033;-73
2023/03/15 00:28:50;;;;;;;9.93;2.50;;;;;;;-144.48;100.00;62369.91;5030193;28;20021;-71
2023/03/15 00:31:18;;;;;;;17.23;1.60;;;;;;;-144.48;100.00;62369.91;5031040;28;20025;-70
2023/03/15 00:33:44;;;;;;;2.10;1.10;;;;;;;-144.48;100.00;62369.91;5030254;28;20104;-73
2023/03/15 00:36:10;;;;;;;6.20;2.03;;;;;;;-144.48;100.00;62369.91;5030199;28;20121;-72
2023/03/15 00:38:37;;;;;;;8.15;1.20;;;;;;;-144.48;100.00;62369.91;5029074;28;20511;-70
2023/03/15 00:41:15;;;;;;;11.82;2.53;;;;;;;-144.48;100.00;62369.91;5024126;28;20060;-71
2023/03/15 00:43:41;;;;;;;9.73;1.83;;;;;;;-144.48;100.00;62369.91;5030424;28;20017;-72
2023/03/15 00:46:07;;;;;;;8.07;1.75;;;;;;;-144.48;100.00;62369.91;5030496;28;20052;-71
2023/03/15 00:48:36;;;;;;;10.63;1.38;;;;;;;-144.48;100.00;62369.91;5030264;28;20071;-72
2023/03/15 00:51:14;;;;;;;14.00;2.28;;;;;;;-144.48;100.00;62369.91;5030408;28;20108;-72
2023/03/15 00:53:42;;;;;;;15.77;1.65;;;;;;;-144.48;100.00;62369.91;5030390;28;20027;-71
2023/03/15 00:56:11;;;;;;;7.63;1.70;;;;;;;-144.48;100.00;62369.91;5030345;28;20075;-72
2023/03/15 00:58:37;;;;;;;5.15;1.40;;;;;;;-144.48;100.00;62369.91;5029975;28;20044;-70
2023/03/15 01:01:12;;;;;;;10.07;1.55;;;;;;;-144.48;100.00;62369.91;5030398;28;20040;-72
2023/03/15 01:03:37;;;;;;;12.85;1.73;;;;;;;-144.48;100.00;62369.91;5029793;28;20097;-71
2023/03/15 01:06:09;;;;;;;9.10;1.80;;;;;;;-144.48;100.00;62369.91;5032966;28;20109;-73
2023/03/15 01:08:34;;;;;;;10.73;1.75;;;;;;;-144.48;100.00;62369.91;5039516;28;20045;-72
2023/03/15 01:11:04;;;;;;;9.07;1.42;;;;;;;-144.48;100.00;62369.91;5030172;28;20060;-72
2023/03/15 01:13:30;;;;;;;5.57;1.75;;;;;;;-144.48;100.00;62369.91;5029963;28;20104;-72
2023/03/15 01:15:55;;;;;;;4.78;1.35;;;;;;;-144.48;100.00;62369.91;5030019;28;20112;-72
2023/03/15 01:18:20;;;;;;;14.02;1.40;;;;;;;-144.48;100.00;62369.91;5029714;28;20056;-72
2023/03/15 01:20:46;;;;;;;4.32;1.50;;;;;;;-144.48;100.00;62369.91;5029556;28;20104;-73
2023/03/15 01:23:11;;;;;;;11.23;1.33;;;;;;;-144.48;100.00;62369.91;5029697;28;20087;-69
2023/03/15 01:25:37;;;;;;;9.15;1.60;;;;;;;-144.48;100.00;62369.91;5029846;28;20036;-73
2023/03/15 01:28:02;;;;;;;9.73;1.85;;;;;;;-144.48;100.00;62369.91;5029441;28;20021;-72
2023/03/15 01:30:27;;;;;;;8.98;1.15;;;;;;;-144.48;100.00;62369.91;5029833;28;20060;-69
2023/03/15 01:32:53;;;;;;;8.45;1.27;;;;;;;-144.48;100.00;62369.91;5029523;28;20029;-72
2023/03/15 01:35:18;;;;;;;8.40;1.27;;;;;;;-144.48;100.00;62369.91;5029178;28;20530;-74
2023/03/15 01:37:43;;;;;;;5.55;1.50;;;;;;;-144.48;100.00;62369.91;5029182;28;20384;-72
2023/03/15 01:40:12;;;;;;;10.48;2.10;;;;;;;-144.48;100.00;62369.91;5027264;28;20384;-73
2023/03/15 01:42:52;;;;;;;12.55;1.55;;;;;;;-144.48;100.00;62369.91;5029446;28;20100;-69
2023/03/15 01:45:49;;;;;;;8.77;1.35;;;;;;;-144.48;100.00;62369.91;5016571;28;20055;-73
2023/03/15 01:48:15;;;;;;;10.20;1.50;;;;;;;-144.48;100.00;62369.91;5029604;28;20026;-71
2023/03/15 01:50:41;;;;;;;9.27;1.20;;;;;;;-144.48;100.00;62369.91;5029336;28;20403;-71
2023/03/15 01:53:07;;;;;;;8.95;1.50;;;;;;;-144.48;100.00;62369.91;5029688;28;20033;-69
2023/03/15 01:55:32;;;;;;;6.32;1.52;;;;;;;-144.48;100.00;62369.91;5029679;28;20036;-71
2023/03/15 01:57:59;;;;;;;10.35;1.80;;;;;;;-144.48;100.00;62369.91;5028808;28;20613;-68
2023/03/15 02:00:26;;;;;;;12.48;1.50;;;;;;;-144.48;100.00;62369.91;5029392;28;20033;-69
2023/03/15 02:03:00;;;;;;;11.27;1.42;;;;;;;-144.48;100.00;62369.91;5028916;28;20018;-70
2023/03/15 02:05:32;;;;;;;9.80;1.90;;;;;;;-144.48;100.00;62369.91;5034212;28;20020;-70
2023/03/15 02:07:58;;;;;;;8.27;1.52;;;;;;;-144.48;100.00;62369.91;5039404;28;20017;-73
2023/03/15 02:10:36;;;;;;;5.90;1.33;;;;;;;-144.48;100.00;62369.91;5018985;28;20077;-73
2023/03/15 02:13:02;;;;;;;5.70;1.50;;;;;;;-144.48;100.00;62369.91;5002557;28;20027;-70
2023/03/15 02:15:27;;;;;;;5.18;1.48;;;;;;;-144.48;100.00;62369.91;5029409;28;20104;-70
2023/03/15 02:17:53;;;;;;;5.40;1.60;;;;;;;-144.48;100.00;62369.91;5028574;28;20428;-71
2023/03/15 02:20:30;;;;;;;16.95;1.88;;;;;;;-144.48;100.00;62369.91;5029223;28;20028;-72
2023/03/15 02:23:02;;;;;;;11.15;1.50;;;;;;;-144.48;100.00;62369.91;5012390;28;20171;-71
2023/03/15 02:26:01;;;;;;;12.13;1.90;;;;;;;-144.48;100.00;62369.91;5028897;28;20037;-71
2023/03/15 02:28:28;;;;;;;6.30;1.70;;;;;;;-144.48;100.00;62369.91;5028886;28;20625;-70
2023/03/15 02:30:53;;;;;;;6.03;1.42;;;;;;;-144.48;100.00;62369.91;5029593;28;20078;-70
2023/03/15 02:33:26;;;;;;;4.72;1.13;;;;;;;-144.48;100.00;62369.91;5029338;28;20045;-71
2023/03/15 02:35:52;;;;;;;9.50;2.83;;;;;;;-144.48;100.00;62369.91;5029133;28;20037;-72
2023/03/15 02:38:18;;;;;;;13.95;1.52;;;;;;;-144.48;100.00;62369.91;5028984;28;20408;-71
2023/03/15 02:40:45;;;;;;;5.15;1.27;;;;;;;-144.48;100.00;62369.91;5027927;28;20104;-70
2023/03/15 02:43:16;;;;;;;4.88;1.58;;;;;;;-144.48;100.00;62369.91;5032808;28;20033;-72
2023/03/15 02:45:43;;;;;;;4.68;1.58;;;;;;;-144.48;100.00;62369.91;5029303;28;20505;-72
2023/03/15 02:48:10;;;;;;;6.68;1.80;;;;;;;-144.48;100.00;62369.91;5028855;28;20018;-70
2023/03/15 02:50:36;;;;;;;9.15;1.35;;;;;;;-144.48;100.00;62369.91;5029913;28;20033;-71
2023/03/15 02:53:01;;;;;;;9.55;2.05;;;;;;;-144.48;100.00;62369.91;5032400;28;20083;-71
2023/03/15 02:55:27;;;;;;;7.13;1.67;;;;;;;-144.48;100.00;62369.91;5032827;28;20029;-71
2023/03/15 02:57:53;;;;;;;6.43;1.48;;;;;;;-144.48;100.00;62369.91;5032510;28;20644;-72
2023/03/15 03:00:18;;;;;;;7.80;1.52;;;;;;;-144.48;100.00;62369.91;5032639;28;20017;-71
2023/03/15 03:02:46;;;;;;;10.48;1.73;;;;;;;-144.48;100.00;62369.91;5027976;28;20487;-72
2023/03/15 03:05:13;;;;;;;10.63;1.30;;;;;;;-144.48;100.00;62369.91;5035390;28;20390;-71
2023/03/15 03:07:41;;;;;;;14.88;1.17;;;;;;;-144.48;100.00;62369.91;5040232;28;20021;-70
2023/03/15 03:10:08;;;;;;;3.60;1.50;;;;;;;-144.48;100.00;62369.91;5041447;28;20052;-70
2023/03/15 03:12:34;;;;;;;5.72;1.15;;;;;;;-144.48;100.00;62369.91;5032574;28;20031;-72
2023/03/15 03:15:01;;;;;;;5.60;1.48;;;;;;;-144.48;100.00;62369.91;5032677;28;20017;-70
2023/03/15 03:17:27;;;;;;;3.72;1.50;;;;;;;-144.48;100.00;62369.91;5031769;28;20030;-69
2023/03/15 03:19:52;;;;;;;13.07;1.73;;;;;;;-144.48;100.00;62369.91;5031885;28;20017;-70
2023/03/15 03:22:18;;;;;;;8.95;1.25;;;;;;;-144.48;100.00;62369.91;5031523;28;20033;-70
2023/03/15 03:24:44;;;;;;;8.70;1.85;;;;;;;-144.48;100.00;62369.91;5031950;28;20041;-70
2023/03/15 03:27:13;;;;;;;6.88;1.77;;;;;;;-144.48;100.00;62369.91;5016884;28;20051;-70
2023/03/15 03:29:40;;;;;;;5.38;1.73;;;;;;;-144.48;100.00;62369.91;5031977;28;20032;-70
2023/03/15 03:32:05;;;;;;;8.20;1.67;;;;;;;-144.48;100.00;62369.91;5031805;28;20112;-69
2023/03/15 03:34:31;;;;;;;5.07;1.05;;;;;;;-144.48;100.00;62369.91;5031542;28;20559;-69
2023/03/15 03:36:56;;;;;;;11.15;1.50;;;;;;;-144.48;100.00;62369.91;5030811;28;20491;-71
2023/03/15 03:39:22;;;;;;;11.85;1.38;;;;;;;-144.48;100.00;62369.91;5031820;28;20053;-71
2023/03/15 03:41:48;;;;;;;10.80;1.58;;;;;;;-144.48;100.00;62369.91;5030077;28;20021;-72
2023/03/15 03:44:14;;;;;;;8.50;1.90;;;;;;;-144.48;100.00;62369.91;5031850;28;20067;-73
2023/03/15 03:46:40;;;;;;;8.68;1.48;;;;;;;-144.48;100.00;62369.91;5016431;28;20788;-71
2023/03/15 03:49:05;;;;;;;5.13;1.33;;;;;;;-144.48;100.00;62369.91;5031713;28;20037;-69
2023/03/15 03:51:32;;;;;;;3.30;0.90;;;;;;;-144.48;100.00;62369.91;5030862;28;20568;-70
2023/03/15 03:53:58;;;;;;;2.53;1.25;;;;;;;-144.48;100.00;62369.91;5031701;28;20577;-72
2023/03/15 03:56:23;;;;;;;4.63;1.00;;;;;;;-144.48;100.00;62369.91;5031213;28;20614;-71
2023/03/15 03:58:49;;;;;;;11.70;2.58;;;;;;;-144.48;100.00;62369.91;5031211;28;20130;-68
2023/03/15 04:01:15;;;;;;;7.10;1.17;;;;;;;-144.48;100.00;62369.91;5030951;28;20029;-70
2023/03/15 04:03:41;;;;;;;9.27;1.50;;;;;;;-144.48;100.00;62369.91;5030460;28;20236;-73
2023/03/15 04:06:06;;;;;;;5.18;1.48;;;;;;;-144.48;100.00;62369.91;5039945;28;20109;-72
2023/03/15 04:08:31;;;;;;;1.27;0.70;;;;;;;-144.48;100.00;62369.91;5045716;28;20017;-73
2023/03/15 04:10:57;;;;;;;10.10;1.05;;;;;;;-144.48;100.00;62369.91;5033658;28;20060;-73
2023/03/15 04:13:23;;;;;;;10.90;0.90;;;;;;;-144.48;100.00;62369.91;5030970;28;20598;-74
2023/03/15 04:15:49;;;;;;;9.52;1.23;;;;;;;-144.48;100.00;62369.91;5030695;28;20649;-72
2023/03/15 04:18:15;;;;;;;7.72;1.70;;;;;;;-144.48;100.00;62369.91;5030724;28;20025;-70
2023/03/15 04:20:47;;;;;;;3.03;1.15;;;;;;;-144.48;100.00;62369.91;5030900;28;20033;-72
2023/03/15 04:23:17;;;;;;;3.90;1.13;;;;;;;-144.48;100.00;62369.91;5030629;28;20045;-73
2023/03/15 04:25:43;;;;;;;10.05;2.47;;;;;;;-144.48;100.00;62369.91;5031068;28;20609;-72
2023/03/15 04:28:12;;;;;;;2.85;0.93;;;;;;;-144.48;100.00;62369.91;5030404;28;20032;-70
2023/03/15 04:30:37;;;;;;;4.50;1.20;;;;;;;-144.48;100.00;62369.91;5030701;28;20029;-72
2023/03/15 04:33:03;;;;;;;4.40;1.05;;;;;;;-144.48;100.00;62369.91;5061877;22;20117;-68
2023/03/15 04:35:33;;;;;;;20.08;2.38;;;;;;;-144.48;100.00;62369.91;5010297;28;20038;-69
2023/03/15 04:38:00;;;;;;;10.70;1.35;;;;;;;-144.48;100.00;62369.91;5013130;28;20144;-68
2023/03/15 04:40:26;;;;;;;8.38;1.20;;;;;;;-144.48;100.00;62369.91;5003294;28;20049;-68
2023/03/15 04:42:55;;;;;;;7.40;1.95;;;;;;;-144.48;100.00;62369.91;5014004;28;20033;-67
2023/03/15 04:45:24;;;;;;;7.63;1.52;;;;;;;-144.48;100.00;62369.91;5022268;28;20030;-67
2023/03/15 04:47:51;;;;;;;5.95;0.80;;;;;;;-144.48;100.00;62369.91;5022570;28;20025;-66
2023/03/15 04:50:17;;;;;;;4.22;0.85;;;;;;;-144.48;100.00;62369.91;5010030;28;20559;-67
2023/03/15 04:52:43;;;;;;;10.52;1.20;;;;;;;-144.48;100.00;62369.91;5013428;28;20025;-67
2023/03/15 04:55:08;;;;;;;8.02;2.33;;;;;;;-144.48;100.00;62369.91;5010077;28;20032;-66
2023/03/15 04:57:34;;;;;;;4.25;1.17;;;;;;;-144.48;100.00;62369.91;5010137;28;20416;-68
2023/03/15 05:00:00;;;;;;;3.08;1.38;;;;;;;-144.48;100.00;62369.91;5022392;28;20033;-66
2023/03/15 05:02:25;;;;;;;4.88;1.83;;;;;;;-144.48;100.00;62369.91;5009676;28;20029;-67
2023/03/15 05:04:51;;;;;;;17.00;1.73;;;;;;;-144.48;100.00;62369.91;5018324;28;20512;-66
2023/03/15 05:07:16;;;;;;;1.70;0.98;;;;;;;-144.48;100.00;62369.91;5022291;28;20072;-66
2023/03/15 05:09:44;;;;;;;7.03;1.20;;;;;;;-144.48;100.00;62369.91;5026198;28;20025;-67
2023/03/15 05:12:10;;;;;;;9.15;1.17;;;;;;;-144.48;100.00;62369.91;5014203;28;20062;-65
2023/03/15 05:14:36;;;;;;;6.35;1.23;;;;;;;-144.48;100.00;62369.91;5008602;28;20526;-68
2023/03/15 05:17:02;;;;;;;1.67;0.88;;;;;;;-144.48;100.00;62369.91;5009743;28;20030;-67
2023/03/15 05:19:28;;;;;;;5.28;1.00;;;;;;;-144.48;100.00;62369.91;5020418;28;20062;-68
2023/03/15 05:21:53;;;;;;;7.15;1.73;;;;;;;-144.48;100.00;62369.91;5022127;28;20111;-66
2023/03/15 05:24:20;;;;;;;7.15;1.63;;;;;;;-144.48;100.00;62369.91;5007884;28;20022;-67
2023/03/15 05:26:45;;;;;;;7.97;2.10;;;;;;;-144.48;100.00;62369.91;5008570;28;20036;-68
2023/03/15 05:29:14;;;;;;;11.60;1.95;;;;;;;-144.48;100.00;62369.91;5008446;28;20037;-66
2023/03/15 05:31:39;;;;;;;9.02;1.83;;;;;;;-144.48;100.00;62369.91;5005832;28;20068;-67
2023/03/15 05:34:05;;;;;;;7.10;1.48;;;;;;;-144.48;100.00;62369.91;5015260;28;20033;-66
2023/03/15 05:36:31;;;;;;;7.53;1.52;;;;;;;-144.48;100.00;62369.91;5010055;28;20025;-66
2023/03/15 05:38:57;;;;;;;8.35;1.10;;;;;;;-144.48;100.00;62369.91;5008654;28;20029;-67
2023/03/15 05:41:22;;;;;;;5.88;1.17;;;;;;;-144.48;100.00;62369.91;5021801;28;20037;-68
2023/03/15 05:43:48;;;;;;;3.70;1.80;;;;;;;-144.48;100.00;62369.91;5009712;28;20032;-67
2023/03/15 05:46:14;;;;;;;11.90;1.50;;;;;;;-144.48;100.00;62369.91;5009354;28;20037;-67
2023/03/15 05:48:39;;;;;;;8.68;2.35;;;;;;;-144.48;100.00;62369.91;5007602;28;20026;-65
2023/03/15 05:51:05;;;;;;;3.47;1.55;;;;;;;-144.48;100.00;62369.91;5013824;28;20089;-68
2023/03/15 05:53:30;;;;;;;13.60;1.67;;;;;;;-144.48;100.00;62369.91;5009454;28;20547;-67
2023/03/15 05:55:55;;;;;;;8.40;1.38;;;;;;;-144.48;100.00;62369.91;5018049;28;20141;-69
2023/03/15 05:58:21;;;;;;;6.45;1.42;;;;;;;-144.48;100.00;62369.91;5011360;28;20030;-67
2023/03/15 06:00:48;;;;;;;3.97;1.58;;;;;;;-144.48;100.00;62369.91;5025416;28;20105;-68
2023/03/15 06:03:13;;;;;;;7.13;1.38;;;;;;;-144.48;100.00;62369.91;5010063;28;20092;-69
2023/03/15 06:05:39;;;;;;;7.45;1.98;;;;;;;-144.48;100.00;62369.91;5017135;28;20124;-65
2023/03/15 06:08:04;;;;;;;13.95;1.98;;;;;;;-144.48;100.00;62369.91;5019264;28;20593;-64
2023/03/15 06:10:30;;;;;;;6.50;1.58;;;;;;;-144.48;100.00;62369.91;5007998;28;20025;-69
2023/03/15 06:12:55;;;;;;;6.85;1.30;;;;;;;-144.48;100.00;62369.91;5007434;28;20480;-67
2023/03/15 06:15:20;;;;;;;11.60;1.40;;;;;;;-144.48;100.00;62369.91;5014501;28;20041;-68
2023/03/15 06:17:46;;;;;;;7.35;1.35;;;;;;;-144.48;100.00;62369.91;5010584;28;20025;-67
2023/03/15 06:20:11;;;;;;;7.18;1.88;;;;;;;-144.48;100.00;62369.91;5014197;28;20065;-70
2023/03/15 06:22:37;;;;;;;4.53;1.27;;;;;;;-144.48;100.00;62369.91;5014202;28;20476;-68
2023/03/15 06:25:03;;;;;;;12.02;1.27;;;;;;;-144.48;100.00;62369.91;5014167;28;20078;-68
2023/03/15 06:27:29;;;;;;;5.03;1.27;;;;;;;-144.48;100.00;62369.91;5012551;28;20025;-66
2023/03/15 06:29:55;;;;;;;3.88;1.20;;;;;;;-144.48;100.00;62369.91;5011954;28;20124;-66
2023/03/15 06:32:20;;;;;;;11.10;1.25;;;;;;;-144.48;100.00;62369.91;4994560;28;20030;-70
2023/03/15 06:34:46;;;;;;;7.25;1.55;;;;;;;-144.48;100.00;62369.91;5012286;28;20032;-68
2023/03/15 06:37:12;;;;;;;14.07;1.92;;;;;;;-144.48;100.00;62369.91;5013584;28;20083;-67
2023/03/15 06:39:38;;;;;;;7.40;1.70;;;;;;;-144.48;100.00;62369.91;5011217;28;20051;-68
2023/03/15 06:42:07;;;;;;;10.98;2.22;;;;;;;-144.48;100.00;62369.91;5011437;28;20360;-68
2023/03/15 06:44:33;;;;;;;5.85;1.48;;;;;;;-144.48;100.00;62369.91;5024632;28;20516;-67
2023/03/15 06:46:58;;;;;;;5.63;1.50;;;;;;;-144.48;100.00;62369.91;5011446;28;20499;-65
2023/03/15 06:49:23;;;;;;;11.93;1.50;;;;;;;-144.48;100.00;62369.91;5013651;28;20040;-67
2023/03/15 06:51:49;;;;;;;8.68;1.38;;;;;;;-144.48;100.00;62369.91;5022031;28;20042;-68
2023/03/15 06:54:14;;;;;;;8.05;1.63;;;;;;;-144.48;100.00;62369.91;5024717;28;20047;-65
2023/03/15 06:56:40;;;;;;;22.27;3.10;;;;;;;-144.48;100.00;62369.91;5011152;28;20463;-68
2023/03/15 06:59:06;;;;;;;8.60;1.60;;;;;;;-144.48;100.00;62369.91;5011244;28;20108;-69
2023/03/15 07:01:31;;;;;;;14.68;1.98;;;;;;;-144.48;100.00;62369.91;5011204;28;20060;-68
2023/03/15 07:03:57;;;;;;;12.70;1.42;;;;;;;-144.48;100.00;62369.91;5010992;28;20022;-66
2023/03/15 07:06:22;;;;;;;10.13;2.17;;;;;;;-144.48;100.00;62369.91;5015530;28;20025;-67
2023/03/15 07:08:47;;;;;;;7.70;1.60;;;;;;;-144.48;100.00;62369.91;5022319;28;20029;-67
2023/03/15 07:11:13;;;;;;;7.82;1.67;;;;;;;-144.48;100.00;62369.91;5010976;28;20022;-67
2023/03/15 07:13:38;;;;;;;6.07;1.23;;;;;;;-144.48;100.00;62369.91;5010921;28;20041;-67
2023/03/15 07:16:04;;;;;;;12.75;2.22;;;;;;;-144.48;100.00;62369.91;5007469;28;20026;-65
2023/03/15 07:18:33;;;;;;;5.07;2.17;;;;;;;-144.48;100.00;62369.91;5004753;28;20084;-68
2023/03/15 07:20:59;;;;;;;17.98;1.83;;;;;;;-144.48;100.00;62369.91;5011797;28;20034;-67
2023/03/15 07:23:25;;;;;;;5.40;1.52;;;;;;;-144.48;100.00;62369.91;5012380;28;20026;-65
2023/03/15 07:25:50;;;;;;;11.85;2.03;;;;;;;-144.48;100.00;62369.91;5011349;28;20030;-69
2023/03/15 07:28:16;;;;;;;6.35;2.85;;;;;;;-144.48;100.00;62369.91;5005119;28;20461;-66
2023/03/15 07:30:41;;;;;;;3.35;1.38;;;;;;;-144.48;100.00;62369.91;5015035;28;20021;-67
2023/03/15 07:33:07;;;;;;;9.52;1.73;;;;;;;-144.48;100.00;62369.91;5020363;28;20034;-67
2023/03/15 07:35:32;;;;;;;6.07;1.85;;;;;;;-144.48;100.00;62369.91;5023479;28;20029;-67
2023/03/15 07:37:57;;;;;;;6.57;1.50;;;;;;;-144.48;100.00;62369.91;5019192;28;20026;-68
2023/03/15 07:40:25;;;;;;;8.50;3.00;;;;;;;-144.48;100.00;62369.91;5016659;28;20037;-67
2023/03/15 07:42:50;;;;;;;9.65;2.08;;;;;;;-144.48;100.00;62369.91;5002785;28;20548;-67
2023/03/15 07:45:16;;;;;;;5.78;1.63;;;;;;;-144.48;100.00;62369.91;5010820;28;20060;-66
2023/03/15 07:47:41;;;;;;;16.20;2.97;;;;;;;-144.48;100.00;62369.91;5019996;28;20455;-66
2023/03/15 07:50:07;;;;;;;8.27;1.88;;;;;;;-144.48;100.00;62369.91;5016915;28;20071;-66
2023/03/15 07:52:32;;;;;;;13.77;2.72;;;;;;;-144.48;100.00;62369.91;5020245;28;20034;-67
2023/03/15 07:54:58;;;;;;;15.60;2.03;;;;;;;-144.48;100.00;62369.91;4991873;28;20030;-65
2023/03/15 07:57:23;;;;;;;9.50;2.35;;;;;;;-144.48;100.00;62369.91;5009443;28;20025;-67
2023/03/15 07:59:51;;;;;;;9.93;2.45;;;;;;;-144.48;100.00;62369.91;5023006;28;21572;-68
2023/03/15 08:02:16;;;;;;;12.73;2.38;;;;;;;-144.48;100.00;62369.91;5010195;28;20385;-67
2023/03/15 08:04:42;;;;;;;14.23;1.75;;;;;;;-144.48;100.00;62369.91;5021895;28;20036;-67
2023/03/15 08:07:07;;;;;;;9.05;2.40;;;;;;;-144.48;100.00;62369.91;5022385;28;20080;-67
2023/03/15 08:09:33;;;;;;;11.57;1.92;;;;;;;-144.48;100.00;62369.91;5013371;28;20018;-67
2023/03/15 08:11:59;;;;;;;13.30;1.98;;;;;;;-144.48;100.00;62369.91;4992682;28;20037;-67
2023/03/15 08:14:24;;;;;;;12.10;2.70;;;;;;;-144.48;100.00;62369.91;5012747;28;20017;-66
2023/03/15 08:16:50;;;;;;;14.48;2.72;;;;;;;-144.48;100.00;62369.91;5028387;28;20065;-66
2023/03/15 08:19:15;;;;;;;23.13;2.38;;;;;;;-144.48;100.00;62369.91;5014282;28;20026;-66
2023/03/15 08:21:44;;;;;;;8.20;2.00;;;;;;;-144.48;100.00;62369.91;5011037;28;20056;-68
2023/03/15 08:24:10;;;;;;;10.05;2.08;;;;;;;-144.48;100.00;62369.91;5023040;28;20025;-67
2023/03/15 08:26:36;;;;;;;4.47;1.65;;;;;;;-144.48;100.00;62369.91;5018389;28;20029;-67
2023/03/15 08:29:01;;;;;;;20.20;2.10;;;;;;;-144.48;100.00;62369.91;5007899;28;20033;-68
2023/03/15 08:31:27;;;;;;;3.30;1.50;;;;;;;-144.48;100.00;62369.91;5019142;28;20552;-66
2023/03/15 08:33:52;;;;;;;12.90;2.33;;;;;;;-144.48;100.00;62369.91;5013080;28;20499;-65
2023/03/15 08:36:18;;;;;;;7.53;1.83;;;;;;;-144.48;100.00;62369.91;5014773;28;20114;-67
2023/03/15 08:38:44;;;;;;;5.68;2.10;;;;;;;-144.48;100.00;62369.91;5012847;28;20091;-66
2023/03/15 08:41:09;;;;;;;24.70;2.20;;;;;;;-144.48;100.00;62369.91;5009743;28;20026;-67
2023/03/15 08:43:34;;;;;;;15.60;2.45;;;;;;;-144.48;100.00;62369.91;5022507;28;20100;-66
2023/03/15 08:46:00;;;;;;;14.07;2.83;;;;;;;-144.48;100.00;62369.91;5009419;28;20041;-67
2023/03/15 08:48:26;;;;;;;20.58;2.33;;;;;;;-144.48;100.00;62369.91;5008520;28;21213;-67
2023/03/15 08:50:51;;;;;;;13.23;1.90;;;;;;;-144.48;100.00;62369.91;5010805;28;20445;-67
2023/03/15 08:53:16;;;;;;;3.58;1.58;;;;;;;-144.48;100.00;62369.91;5015800;28;20106;-67
2023/03/15 08:55:42;;;;;;;11.65;2.35;;;;;;;-144.48;100.00;62369.91;5020317;28;20210;-64
2023/03/15 08:58:07;;;;;;;9.30;2.58;;;;;;;-144.48;100.00;62369.91;5008849;28;20098;-67
2023/03/15 09:00:33;;;;;;;16.63;2.45;;;;;;;-144.48;100.00;62369.91;5017551;28;20408;-66
2023/03/15 09:02:58;;;;;;;4.75;1.65;;;;;;;-144.48;100.00;62369.91;5014025;28;20080;-67
2023/03/15 09:05:24;;;;;;;8.88;2.50;;;;;;;-144.48;100.00;62369.91;5013389;28;20043;-67
2023/03/15 09:07:51;;;;;;;11.13;2.08;;;;;;;-144.48;100.00;62369.91;4999784;28;20022;-68
2023/03/15 09:10:18;;;;;;;8.45;2.25;;;;;;;-144.48;100.00;62369.91;5009402;28;20038;-67
2023/03/15 09:12:49;;;;;;;9.57;2.22;;;;;;;-144.48;100.00;62369.91;5008668;28;20026;-64
2023/03/15 09:15:15;;;;;;;10.13;2.00;;;;;;;-144.48;100.00;62369.91;5008987;28;20392;-68
2023/03/15 09:17:41;;;;;;;4.72;1.75;;;;;;;-144.48;100.00;62369.91;5021264;28;20022;-66
2023/03/15 09:20:13;;;;;;;7.85;2.00;;;;;;;-144.48;100.00;62369.91;5008303;28;20048;-68
2023/03/15 09:22:40;;;;;;;17.35;2.00;;;;;;;-144.48;100.00;62369.91;5019037;28;20025;-66
2023/03/15 09:25:07;;;;;;;10.18;3.17;;;;;;;-144.48;100.00;62369.91;4990611;28;20423;-67
2023/03/15 09:27:32;;;;;;;5.22;1.60;;;;;;;-144.48;100.00;62369.91;4986390;28;20491;-68
2023/03/15 09:29:58;;;;;;;3.30;1.33;;;;;;;-144.48;100.00;62369.91;5007467;28;20021;-65
2023/03/15 09:32:23;;;;;;;6.85;2.00;;;;;;;-144.48;100.00;62369.91;5021728;28;20028;-67
2023/03/15 09:34:50;;;;;;;5.20;2.05;;;;;;;-144.48;100.00;62369.91;5018865;28;20032;-67
2023/03/15 09:37:15;;;;;;;3.92;1.60;;;;;;;-144.48;100.00;62369.91;5015641;28;20030;-66
2023/03/15 09:39:41;;;;;;;8.98;1.75;;;;;;;-144.48;100.00;62369.91;5019314;28;20105;-64
2023/03/15 09:42:18;;;;;;;6.32;1.58;;;;;;;-144.48;100.00;62369.91;5010572;28;20109;-66
2023/03/15 09:44:56;;;;;;;5.75;1.88;;;;;;;-144.48;100.00;62369.91;5008520;28;20429;-66
2023/03/15 09:47:24;;;;;;;9.45;2.33;;;;;;;-144.48;100.00;62369.91;5004482;28;20143;-67
2023/03/15 09:50:04;;;;;;;7.85;2.38;;;;;;;-144.48;100.00;62369.91;5013533;28;20034;-67
2023/03/15 09:52:45;;;;;;;12.60;2.22;;;;;;;-144.48;100.00;62369.91;5009018;28;20523;-68
2023/03/15 09:55:14;;;;;;;8.70;2.28;;;;;;;-144.48;100.00;62369.91;5008171;28;20053;-63
2023/03/15 09:58:01;;;;;;;4.63;1.92;;;;;;;-144.48;100.00;62369.91;5020594;28;20060;-67
2023/03/15 10:00:41;;;;;;;7.60;2.10;;;;;;;-144.48;100.00;62369.91;4997805;28;20096;-65
2023/03/15 10:03:17;;;;;;;10.32;1.75;;;;;;;-144.48;100.00;62369.91;5012176;28;20528;-65
2023/03/15 10:05:46;;;;;;;9.02;2.30;;;;;;;-144.48;100.00;62369.91;5024150;28;20029;-67
2023/03/15 10:08:16;;;;;;;6.55;1.85;;;;;;;-144.48;100.00;62369.91;5028709;28;20021;-68
2023/03/15 10:10:53;;;;;;;8.43;2.15;;;;;;;-144.48;100.00;62369.91;5032217;28;20036;-67
2023/03/15 10:13:24;;;;;;;6.35;1.40;;;;;;;-144.48;100.00;62369.91;5008239;28;20439;-67
2023/03/15 10:16:07;;;;;;;3.03;1.60;;;;;;;-144.48;100.00;62369.91;5015432;28;20022;-64
2023/03/15 10:18:57;;;;;;;10.60;1.88;;;;;;;-144.48;100.00;62369.91;5014394;28;20115;-67
2023/03/15 10:21:53;;;;;;;4.20;1.55;;;;;;;-144.48;100.00;62369.91;5000393;28;20818;-67
2023/03/15 10:24:27;;;;;;;4.78;1.83;;;;;;;-144.48;100.00;62369.91;5011213;28;20049;-67
2023/03/15 10:26:52;;;;;;;5.63;1.75;;;;;;;-144.48;100.00;62369.91;5011922;28;20037;-67
2023/03/15 10:29:20;;;;;;;10.35;2.88;;;;;;;-144.48;100.00;62369.91;5006506;28;20499;-68
2023/03/15 10:31:46;;;;;;;6.00;1.52;;;;;;;-144.48;100.00;62369.91;5024660;28;20124;-68
2023/03/15 10:34:13;;;;;;;3.50;1.73;;;;;;;-144.48;100.00;62369.91;5015195;28;20033;-65
2023/03/15 10:36:54;;;;;;;4.07;1.85;;;;;;;-144.48;100.00;62369.91;5012522;28;20050;-67
2023/03/15 10:39:20;;;;;;;4.72;1.80;;;;;;;-144.48;100.00;62369.91;5008417;28;20026;-67
2023/03/15 10:41:48;;;;;;;7.00;1.77;;;;;;;-144.48;100.00;62369.91;5018864;28;20076;-65
2023/03/15 10:44:20;;;;;;;4.43;1.70;;;;;;;-144.48;100.00;62369.91;5026414;28;20050;-66
2023/03/15 10:47:06;;;;;;;5.70;2.05;;;;;;;-144.48;100.00;62369.91;5012881;28;20108;-66
2023/03/15 10:49:37;;;;;;;5.60;2.28;;;;;;;-144.48;100.00;62369.91;5019736;28;20208;-65
2023/03/15 10:52:03;;;;;;;4.47;1.77;;;;;;;-144.48;100.00;62369.91;5019321;28;20036;-68
2023/03/15 10:54:32;;;;;;;8.60;1.90;;;;;;;-144.48;100.00;62369.91;5021295;28;20026;-66
2023/03/15 10:57:02;;;;;;;6.15;1.65;;;;;;;-144.48;100.00;62369.91;5011979;28;20037;-66
2023/03/15 10:59:31;;;;;;;4.30;2.00;;;;;;;-144.48;100.00;62369.91;5025180;28;20032;-66
2023/03/15 11:02:11;;;;;;;3.83;1.42;;;;;;;-144.48;100.00;62369.91;5019009;28;20155;-68
2023/03/15 11:04:42;;;;;;;6.78;1.40;;;;;;;-144.48;100.00;62369.91;5016917;28;20026;-67
2023/03/15 11:07:07;;;;;;;9.07;2.42;;;;;;;-144.48;100.00;62369.91;5003498;28;20036;-67
2023/03/15 11:09:52;;;;;;;4.10;1.67;;;;;;;-144.48;100.00;62369.91;5015439;28;20034;-67